Doesburg, Netherlands
Current Conditions -  °F | °C
As of 11:55 PM on Tuesday 27 Jan 2015 (Local Time) from EHDL Reporting Station
Haze Haze  
Wind Chill: 29°   Ceiling: 1500
Heat Index: 36°   Visibility: 3mi
Dew Point: 34°   Wind: 9mph
Humidity: 93%   Direction: 220°SW
Pressure: 30.12"   Gusts: NA
Location:  52.01°N, 6.14°E
Report Text: EHDL 272255Z AUTO 22008KT 5000 BR SCT013 BKN015 BKN019 02/01 Q1020 GRN
Loading
Personal Weather Stations






























Interactive Weather Map New forecast layout! Learn more

10-Day Weather Forecast

Advertisements
Track Severe Weather on mobile